createdAt,value
2022-08-16T00:01:26.436Z,19.00
2022-08-16T00:05:35.612Z,18.90
2022-08-16T00:09:57.614Z,19.00
2022-08-16T00:14:11.825Z,18.90
2022-08-16T00:18:29.791Z,18.90
2022-08-16T00:22:40.055Z,18.90
2022-08-16T00:26:51.588Z,18.90
2022-08-16T00:31:01.873Z,18.90
2022-08-16T00:35:15.988Z,18.90
2022-08-16T00:39:25.382Z,18.90
2022-08-16T00:43:42.711Z,18.90
2022-08-16T00:47:55.947Z,18.90
2022-08-16T00:52:05.207Z,18.90
2022-08-16T00:56:56.187Z,18.90
2022-08-16T01:01:08.012Z,18.90
2022-08-16T01:05:19.251Z,18.90
2022-08-16T01:09:34.519Z,18.90
2022-08-16T01:13:47.120Z,19.00
2022-08-16T01:17:56.404Z,18.90
2022-08-16T01:22:49.607Z,19.00
2022-08-16T01:26:49.409Z,18.90
2022-08-16T01:31:00.368Z,18.90
2022-08-16T01:35:17.021Z,18.90
2022-08-16T01:39:26.497Z,18.90
2022-08-16T01:43:38.144Z,18.90
2022-08-16T01:47:49.096Z,18.90
2022-08-16T01:52:01.007Z,18.80
2022-08-16T01:56:24.748Z,18.80
2022-08-16T02:00:35.724Z,18.80
2022-08-16T02:04:49.079Z,18.80
2022-08-16T02:09:05.459Z,18.80
2022-08-16T02:13:14.783Z,18.80
2022-08-16T02:17:25.115Z,18.80
2022-08-16T02:21:37.266Z,18.70
2022-08-16T02:26:06.453Z,18.70
2022-08-16T02:30:37.929Z,18.70
2022-08-16T02:34:50.310Z,18.70
2022-08-16T02:38:59.201Z,18.70
2022-08-16T02:43:08.764Z,18.70
2022-08-16T02:47:25.557Z,18.70
2022-08-16T02:51:36.520Z,18.80
2022-08-16T02:55:45.365Z,18.80
2022-08-16T03:00:03.787Z,18.80
2022-08-16T03:04:52.054Z,18.70
2022-08-16T03:08:59.952Z,18.60
2022-08-16T03:13:12.592Z,18.60
2022-08-16T03:17:21.928Z,18.50
2022-08-16T03:21:38.134Z,18.40
2022-08-16T03:25:48.880Z,18.30
2022-08-16T03:29:57.680Z,18.30
2022-08-16T03:34:06.339Z,18.30
2022-08-16T03:38:32.989Z,18.20
2022-08-16T03:43:00.555Z,18.10
2022-08-16T03:47:18.521Z,17.90
2022-08-16T03:51:28.309Z,17.90
2022-08-16T03:55:45.771Z,17.90
2022-08-16T03:59:56.371Z,17.90
2022-08-16T04:04:05.496Z,17.90
2022-08-16T04:08:22.821Z,17.90
2022-08-16T04:12:52.330Z,17.90
2022-08-16T04:17:03.376Z,17.90
2022-08-16T04:21:12.644Z,17.90
2022-08-16T04:25:38.791Z,17.90
2022-08-16T04:29:49.317Z,17.80
2022-08-16T04:34:02.687Z,17.70
2022-08-16T04:38:20.839Z,17.70
2022-08-16T04:42:30.529Z,17.60
2022-08-16T04:47:00.614Z,17.70
2022-08-16T04:51:13.708Z,17.60
2022-08-16T04:55:31.981Z,17.60
2022-08-16T04:59:47.205Z,17.80
2022-08-16T05:04:00.000Z,17.60
2022-08-16T05:08:28.285Z,17.60
2022-08-16T05:12:39.401Z,17.60
2022-08-16T05:16:53.608Z,17.50
2022-08-16T05:21:09.576Z,17.40
2022-08-16T05:25:22.648Z,17.40
2022-08-16T05:29:56.848Z,17.50
2022-08-16T05:34:03.342Z,17.40
2022-08-16T05:38:32.600Z,17.40
2022-08-16T05:48:13.840Z,17.50
2022-08-16T05:52:27.889Z,17.40
2022-08-16T05:56:37.663Z,17.30
2022-08-16T06:00:46.538Z,17.30
2022-08-16T06:04:58.276Z,17.30
2022-08-16T06:09:07.427Z,17.40
2022-08-16T06:13:17.734Z,17.40
2022-08-16T06:17:43.098Z,17.50
2022-08-16T06:21:55.092Z,17.60
2022-08-16T06:26:07.764Z,17.70
2022-08-16T06:30:19.752Z,17.80
2022-08-16T06:34:55.134Z,17.80
2022-08-16T07:38:19.568Z,18.30
2022-08-16T07:42:35.129Z,18.30
2022-08-16T07:46:44.266Z,18.40
